Time;durP1;ratioP1;P1;durP2;ratioP2;P2;SDS_P1;SDS_P2;PMS_P1;PMS_P2;Temp;Humidity;BMP_temperature;BMP_pressure;BME280_temperature;BME280_humidity;BME280_pressure;Samples;Min_cycle;Max_cycle;Signal;HPM_P1;HPM_P2
2022/11/27 00:01:27;;;;;;;0.73;0.73;;;;;;;-6.33;90.50;100865.19;4996448;28;20439;-81
2022/11/27 00:03:54;;;;;;;0.80;0.80;;;;;;;-6.36;90.21;100856.63;5013467;28;20057;-80
2022/11/27 00:06:23;;;;;;;0.70;0.70;;;;;;;-6.32;90.31;100861.63;4996508;28;20050;-80
2022/11/27 00:08:51;;;;;;;0.60;0.60;;;;;;;-6.28;90.49;100869.31;5013730;28;20054;-80
2022/11/27 00:11:21;;;;;;;0.70;0.70;;;;;;;-6.31;90.39;100870.34;4996419;28;20050;-81
2022/11/27 00:13:49;;;;;;;0.80;0.80;;;;;;;-6.26;90.53;100868.28;5013745;28;20046;-82
2022/11/27 00:16:17;;;;;;;0.68;0.68;;;;;;;-6.27;90.44;100865.75;5013754;28;20045;-80
2022/11/27 00:18:44;;;;;;;0.90;0.90;;;;;;;-6.28;90.44;100867.53;5013780;28;20052;-81
2022/11/27 00:21:15;;;;;;;0.85;0.85;;;;;;;-6.26;90.47;100865.66;5014158;28;20053;-81
2022/11/27 00:23:43;;;;;;;0.60;0.60;;;;;;;-6.34;90.45;100855.59;4995518;28;20057;-81
2022/11/27 00:26:10;;;;;;;0.88;0.88;;;;;;;-6.32;90.45;100868.66;4996130;28;20076;-80
2022/11/27 00:28:37;;;;;;;0.90;0.90;;;;;;;-6.30;90.45;100860.66;5013420;28;20112;-81
2022/11/27 00:31:06;;;;;;;0.70;0.70;;;;;;;-6.31;90.59;100865.09;5013166;28;20140;-81
2022/11/27 00:33:34;;;;;;;0.57;0.57;;;;;;;-6.44;90.10;100849.19;5013483;28;20049;-82
2022/11/27 00:36:02;;;;;;;0.77;0.77;;;;;;;-6.41;90.50;100863.94;5013339;28;20050;-80
2022/11/27 00:38:30;;;;;;;0.90;0.90;;;;;;;-6.40;90.78;100866.47;4995651;28;20046;-81
2022/11/27 00:41:06;;;;;;;0.80;0.80;;;;;;;-6.36;90.60;100861.88;5013224;28;20042;-80
2022/11/27 00:43:34;;;;;;;0.80;0.80;;;;;;;-6.38;90.68;100871.63;5013370;28;20062;-81
2022/11/27 00:46:22;;;;;;;0.60;0.60;;;;;;;-6.38;90.85;100855.88;5013427;28;20424;-80
2022/11/27 00:48:56;;;;;;;0.70;0.70;;;;;;;-6.36;90.57;100865.34;4996634;28;20144;-81
2022/11/27 00:51:24;;;;;;;0.80;0.80;;;;;;;-6.40;90.59;100866.47;5012524;28;20042;-80
2022/11/27 00:53:51;;;;;;;0.90;0.90;;;;;;;-6.42;90.78;100857.00;5013047;28;20042;-80
2022/11/27 00:56:28;;;;;;;0.80;0.80;;;;;;;-6.38;90.55;100859.38;5013141;28;20089;-80
2022/11/27 00:58:56;;;;;;;0.75;0.75;;;;;;;-6.41;90.90;100851.63;5012964;28;20065;-80
2022/11/27 01:01:27;;;;;;;0.70;0.70;;;;;;;-6.45;90.81;100847.53;5012979;28;20060;-81
2022/11/27 01:03:56;;;;;;;0.90;0.90;;;;;;;-6.42;90.83;100855.22;5012854;28;20046;-81
2022/11/27 01:06:24;;;;;;;0.70;0.70;;;;;;;-6.39;90.90;100860.28;5012855;28;20140;-80
2022/11/27 01:08:51;;;;;;;0.88;0.88;;;;;;;-6.38;90.96;100859.38;5012923;28;20046;-79
2022/11/27 01:11:24;;;;;;;0.70;0.70;;;;;;;-6.37;91.06;100857.56;5012902;28;20054;-81
2022/11/27 01:13:53;;;;;;;0.70;0.70;;;;;;;-6.36;90.98;100860.09;4995040;28;20054;-80
2022/11/27 01:16:23;;;;;;;0.90;0.90;;;;;;;-6.38;91.10;100856.72;5012763;28;20049;-81
2022/11/27 01:18:52;;;;;;;0.80;0.80;;;;;;;-6.43;91.04;100853.53;5012376;28;20057;-81
2022/11/27 01:21:20;;;;;;;0.77;0.77;;;;;;;-6.50;91.01;100852.19;5012706;28;20512;-80
2022/11/27 01:23:48;;;;;;;0.80;0.80;;;;;;;-6.47;91.06;100859.06;5013027;28;20050;-81
2022/11/27 01:26:17;;;;;;;0.77;0.77;;;;;;;-6.46;91.27;100855.47;5013202;28;20046;-80
2022/11/27 01:28:45;;;;;;;0.80;0.80;;;;;;;-6.47;91.29;100859.91;5013960;28;20144;-82
2022/11/27 01:31:15;;;;;;;0.80;0.80;;;;;;;-6.45;91.36;100855.41;5014223;28;20053;-81
2022/11/27 01:33:43;;;;;;;0.60;0.60;;;;;;;-6.48;91.50;100857.34;5012183;28;20048;-81
2022/11/27 01:36:11;;;;;;;0.80;0.80;;;;;;;-6.51;91.37;100858.38;5012315;28;20054;-82
2022/11/27 01:38:39;;;;;;;0.90;0.90;;;;;;;-6.51;91.76;100862.78;5012539;28;20054;-80
2022/11/27 01:41:40;;;;;;;0.90;0.90;;;;;;;-6.45;91.90;100862.44;5012594;28;20424;-79
2022/11/27 01:44:22;;;;;;;0.90;0.90;;;;;;;-6.43;91.72;100860.53;4913719;29;20056;-80
2022/11/27 01:47:01;;;;;;;0.60;0.60;;;;;;;-6.44;91.85;100857.09;4913287;29;20055;-79
2022/11/27 01:49:32;;;;;;;0.93;0.93;;;;;;;-6.40;92.07;100860.38;4913277;29;20591;-79
2022/11/27 01:52:03;;;;;;;0.80;0.80;;;;;;;-6.39;92.09;100864.69;4913260;29;20052;-80
2022/11/27 01:54:34;;;;;;;1.02;1.02;;;;;;;-6.39;92.15;100872.56;4897560;29;20056;-80
2022/11/27 01:57:05;;;;;;;0.80;0.80;;;;;;;-6.41;91.78;100870.03;4912970;29;20055;-80
2022/11/27 01:59:32;;;;;;;0.85;0.85;;;;;;;-6.42;92.04;100870.97;4913331;29;20052;-80
2022/11/27 02:02:00;;;;;;;0.75;0.75;;;;;;;-6.41;92.12;100863.94;4914061;29;20060;-83
2022/11/27 02:04:27;;;;;;;0.70;0.70;;;;;;;-6.37;92.17;100860.19;4902353;29;20115;-81
2022/11/27 02:06:56;;;;;;;0.75;0.75;;;;;;;-6.34;92.02;100870.53;4896917;29;20066;-82
2022/11/27 02:09:23;;;;;;;0.60;0.60;;;;;;;-6.38;91.87;100867.25;4897242;29;20048;-81
2022/11/27 02:12:12;;;;;;;1.00;1.00;;;;;;;-6.42;92.12;100873.59;4912546;29;20063;-82
2022/11/27 02:15:02;;;;;;;0.80;0.80;;;;;;;-6.43;92.49;100871.06;4899763;29;20147;-81
2022/11/27 02:17:29;;;;;;;0.73;0.73;;;;;;;-6.43;92.35;100871.06;4913135;29;20071;-82
2022/11/27 02:20:10;;;;;;;0.70;0.70;;;;;;;-6.42;92.66;100873.59;4970032;28;20046;-81
2022/11/27 02:22:37;;;;;;;0.70;0.70;;;;;;;-6.45;92.71;100872.94;4994551;28;20053;-83
2022/11/27 02:25:09;;;;;;;0.60;0.60;;;;;;;-6.43;92.73;100882.44;4994115;28;20053;-82
2022/11/27 02:28:08;;;;;;;0.60;0.60;;;;;;;-6.41;92.65;100883.16;5031169;28;20393;-83
2022/11/27 02:30:36;;;;;;;;;;;;;;;-6.42;92.62;100872.75;5031662;28;20060;-83
2022/11/27 02:33:06;;;;;;;0.80;0.80;;;;;;;-6.46;92.64;100865.97;5013392;28;20257;-81
2022/11/27 02:36:06;;;;;;;0.70;0.70;;;;;;;-6.45;92.76;100872.94;5024526;28;20046;-81
2022/11/27 02:38:40;;;;;;;0.73;0.73;;;;;;;-6.44;92.81;100882.50;5010376;28;20149;-80
2022/11/27 02:41:29;;;;;;;0.68;0.68;;;;;;;-6.47;93.16;100873.03;4997915;28;20116;-79
2022/11/27 02:43:58;;;;;;;0.60;0.60;;;;;;;-6.42;93.11;100880.66;5002307;28;20053;-80
2022/11/27 02:46:25;;;;;;;0.80;0.80;;;;;;;-6.39;93.17;100877.84;4996206;28;20052;-80
2022/11/27 02:48:56;;;;;;;0.98;0.98;;;;;;;-6.38;93.51;100875.13;4992596;28;20046;-82
2022/11/27 02:51:32;;;;;;;0.70;0.70;;;;;;;-6.34;93.41;100874.00;5000153;28;20081;-82
2022/11/27 02:54:02;;;;;;;0.80;0.80;;;;;;;-6.32;93.58;100882.63;5014862;28;20084;-83
2022/11/27 02:56:31;;;;;;;0.65;0.65;;;;;;;-6.30;93.67;100882.56;4993165;28;20053;-82
2022/11/27 02:59:02;;;;;;;0.73;0.73;;;;;;;-6.30;93.67;100879.94;4992539;28;20050;-83
2022/11/27 03:01:32;;;;;;;0.70;0.70;;;;;;;-6.30;93.84;100882.56;5017547;28;20050;-83
2022/11/27 03:04:01;;;;;;;0.73;0.73;;;;;;;-6.32;94.07;100885.25;5022165;28;20061;-81
2022/11/27 03:06:33;;;;;;;0.77;0.77;;;;;;;-6.28;94.09;100885.91;5011873;28;20053;-82
2022/11/27 03:09:13;;;;;;;0.85;0.85;;;;;;;-6.27;94.04;100884.16;4995817;28;20053;-81
2022/11/27 03:11:40;;;;;;;0.70;0.70;;;;;;;-6.25;94.30;100890.16;5029835;28;20094;-83
2022/11/27 03:14:09;;;;;;;0.90;0.90;;;;;;;-6.21;94.21;100883.78;5029287;28;20052;-82
2022/11/27 03:16:39;;;;;;;0.68;0.68;;;;;;;-6.21;94.25;100883.78;5013880;28;20053;-83
2022/11/27 03:19:25;;;;;;;0.77;0.77;;;;;;;-6.24;94.29;100871.66;4992167;28;20077;-82
2022/11/27 03:21:58;;;;;;;0.60;0.60;;;;;;;-6.21;94.26;100884.63;5009520;28;20062;-83
2022/11/27 03:24:27;;;;;;;0.60;0.60;;;;;;;-6.21;94.44;100879.38;4992900;28;20046;-82
2022/11/27 03:26:56;;;;;;;0.60;0.60;;;;;;;-6.21;94.47;100881.16;5009705;28;20588;-84
2022/11/27 03:29:37;;;;;;;0.70;0.70;;;;;;;-6.17;94.55;100870.38;4992774;28;20056;-82
2022/11/27 03:32:04;;;;;;;0.70;0.70;;;;;;;-6.19;94.70;100887.16;4975854;28;20050;-81
2022/11/27 03:34:32;;;;;;;0.75;0.75;;;;;;;-6.20;94.79;100882.84;5022377;28;20042;-83
2022/11/27 03:36:59;;;;;;;0.80;0.80;;;;;;;-6.17;94.57;100883.50;4993475;28;20178;-83
2022/11/27 03:39:27;;;;;;;0.70;0.70;;;;;;;-6.15;95.17;100875.56;5021891;28;20409;-83
2022/11/27 03:42:22;;;;;;;0.60;0.60;;;;;;;-6.13;94.68;100884.16;4976982;28;20073;-83
2022/11/27 03:45:07;;;;;;;0.68;0.68;;;;;;;-6.14;94.90;100888.59;4991703;28;20046;-81
2022/11/27 03:47:53;;;;;;;0.70;0.70;;;;;;;-6.13;94.67;100892.91;5009540;28;20057;-83
2022/11/27 03:50:20;;;;;;;0.65;0.65;;;;;;;-6.11;94.96;100893.66;5009521;28;20038;-83
2022/11/27 03:53:07;;;;;;;0.80;0.80;;;;;;;-6.11;94.69;100890.19;5008768;28;20136;-83
2022/11/27 03:55:40;;;;;;;0.90;0.90;;;;;;;-6.12;94.53;100881.47;4991737;28;20062;-83
2022/11/27 03:58:22;;;;;;;0.80;0.80;;;;;;;-6.14;94.75;100883.31;5008882;28;20050;-81
2022/11/27 04:00:50;;;;;;;0.70;0.70;;;;;;;-6.09;94.68;100890.09;4974785;28;20489;-82
2022/11/27 04:03:24;;;;;;;0.70;0.70;;;;;;;-6.09;94.53;100885.69;5008742;28;20054;-81
2022/11/27 04:05:52;;;;;;;0.90;0.90;;;;;;;-6.05;94.57;100891.59;5009371;28;20038;-81
2022/11/27 04:08:19;;;;;;;0.75;0.75;;;;;;;-6.06;94.58;100879.41;5008805;28;20085;-82
2022/11/27 04:10:48;;;;;;;0.80;0.80;;;;;;;-6.09;94.55;100882.22;5008891;28;20141;-82
2022/11/27 04:13:15;;;;;;;0.70;0.70;;;;;;;-6.09;94.61;100876.97;5008671;28;20072;-81
2022/11/27 04:15:42;;;;;;;0.80;0.80;;;;;;;-6.09;94.61;100882.22;5008719;28;20140;-81
2022/11/27 04:18:09;;;;;;;0.85;0.85;;;;;;;-6.06;94.51;100887.28;5009280;28;20053;-83
2022/11/27 04:20:36;;;;;;;0.70;0.70;;;;;;;-6.03;94.57;100885.31;5009321;28;20206;-82
2022/11/27 04:23:03;;;;;;;0.80;0.80;;;;;;;-6.01;94.53;100891.31;5008660;28;20457;-81
2022/11/27 04:25:31;;;;;;;0.70;0.70;;;;;;;-6.01;94.31;100885.22;5008753;28;20046;-82
2022/11/27 04:27:58;;;;;;;0.65;0.65;;;;;;;-6.01;94.37;100895.75;5012339;28;20100;-82
2022/11/27 04:30:26;;;;;;;0.70;0.70;;;;;;;-6.00;94.29;100894.78;5012871;28;20145;-82
2022/11/27 04:32:53;;;;;;;0.70;0.70;;;;;;;-5.98;94.43;100893.75;5012425;28;20517;-82
2022/11/27 04:35:20;;;;;;;0.65;0.65;;;;;;;-5.98;93.97;100899.00;5012534;28;20054;-81
2022/11/27 04:37:48;;;;;;;0.68;0.68;;;;;;;-5.98;93.89;100903.44;5014644;28;20057;-81
2022/11/27 04:40:15;;;;;;;0.90;0.90;;;;;;;-5.97;93.71;100906.00;5004101;28;20428;-81
2022/11/27 04:42:42;;;;;;;0.70;0.70;;;;;;;-5.96;93.88;100905.03;5000621;28;20164;-82
2022/11/27 04:45:10;;;;;;;0.68;0.68;;;;;;;-5.90;93.35;100903.78;5032571;28;20523;-81
2022/11/27 04:47:37;;;;;;;0.63;0.63;;;;;;;-5.88;93.44;100909.81;5032850;28;20041;-82
2022/11/27 04:50:05;;;;;;;0.70;0.70;;;;;;;-5.87;93.68;100908.88;5014545;28;20050;-81
2022/11/27 04:52:32;;;;;;;0.60;0.60;;;;;;;-5.87;93.29;100911.50;5014364;28;20507;-82
2022/11/27 04:54:59;;;;;;;0.68;0.68;;;;;;;-5.87;93.66;100916.78;5032065;28;20045;-83
2022/11/27 04:57:27;;;;;;;0.70;0.70;;;;;;;-5.82;93.58;100906.81;5032048;28;20488;-82
2022/11/27 04:59:54;;;;;;;0.68;0.68;;;;;;;-5.84;93.22;100911.31;5032569;28;20152;-83
2022/11/27 05:02:21;;;;;;;0.90;0.90;;;;;;;-5.88;93.30;100917.69;5032790;28;20169;-81
2022/11/27 05:04:48;;;;;;;0.65;0.65;;;;;;;-5.89;93.32;100921.28;5034747;28;20045;-83
2022/11/27 05:07:15;;;;;;;0.65;0.65;;;;;;;-5.89;93.54;100910.75;5034245;28;20091;-83
2022/11/27 05:09:42;;;;;;;0.80;0.80;;;;;;;-5.93;93.37;100911.84;5032159;28;20605;-80
2022/11/27 05:12:10;;;;;;;0.80;0.80;;;;;;;-5.93;93.26;100909.22;5014127;28;20050;-80
2022/11/27 05:14:37;;;;;;;0.70;0.70;;;;;;;-5.93;93.34;100912.69;5032116;28;20053;-81
2022/11/27 05:17:05;;;;;;;0.57;0.57;;;;;;;-5.89;93.46;100911.59;5031945;28;20148;-81
2022/11/27 05:19:32;;;;;;;0.70;0.70;;;;;;;-5.87;93.66;100908.88;5025464;28;20057;-81
2022/11/27 05:21:59;;;;;;;0.60;0.60;;;;;;;-5.84;93.64;100906.06;5016889;28;20455;-81
2022/11/27 05:24:28;;;;;;;0.70;0.70;;;;;;;-5.80;93.63;100910.19;5015719;28;20197;-79
2022/11/27 05:26:56;;;;;;;0.80;0.80;;;;;;;-5.77;93.71;100917.03;5021217;28;20049;-81
2022/11/27 05:29:24;;;;;;;0.70;0.70;;;;;;;-5.77;93.62;100911.78;5020171;28;20454;-80
2022/11/27 05:31:51;;;;;;;0.95;0.95;;;;;;;-5.81;93.63;100903.25;4995328;28;20049;-82
2022/11/27 05:34:19;;;;;;;0.70;0.70;;;;;;;-5.83;93.65;100910.38;5013232;28;20050;-81
2022/11/27 05:36:47;;;;;;;0.68;0.68;;;;;;;-5.86;93.73;100901.84;5011983;28;20064;-82
2022/11/27 05:39:14;;;;;;;0.70;0.70;;;;;;;-5.83;93.99;100905.09;5017828;28;20065;-84
2022/11/27 05:41:42;;;;;;;0.80;0.80;;;;;;;-5.80;93.64;100915.44;5002141;28;20092;-82
2022/11/27 05:44:11;;;;;;;0.70;0.70;;;;;;;-5.83;93.81;100913.00;5011941;28;20050;-82
2022/11/27 05:46:39;;;;;;;0.70;0.70;;;;;;;-5.81;94.04;100913.75;5011829;28;20452;-81
2022/11/27 05:49:06;;;;;;;0.73;0.73;;;;;;;-5.82;94.00;100914.72;5011299;28;20046;-81
2022/11/27 05:51:33;;;;;;;0.80;0.80;;;;;;;-5.81;94.22;100913.75;4994264;28;20489;-81
2022/11/27 05:54:00;;;;;;;0.73;0.73;;;;;;;-5.80;94.39;100912.81;4993845;28;20081;-81
2022/11/27 05:56:27;;;;;;;0.80;0.80;;;;;;;-5.81;94.30;100916.38;5011290;28;20209;-83
2022/11/27 05:58:54;;;;;;;0.75;0.75;;;;;;;-5.78;94.66;100917.97;5014590;28;20565;-79
2022/11/27 06:01:21;;;;;;;0.73;0.73;;;;;;;-5.79;94.83;100916.31;5017253;28;20100;-82
2022/11/27 06:03:48;;;;;;;0.60;0.60;;;;;;;-5.70;94.88;100921.00;4681832;28;9999741;-83
2022/11/27 06:06:17;;;;;;;0.80;0.80;;;;;;;-5.68;95.05;100927.84;5013994;28;20058;-82
2022/11/27 06:08:45;;;;;;;0.70;0.70;;;;;;;-5.68;95.15;100925.22;5021552;28;20046;-84
2022/11/27 06:11:18;;;;;;;0.80;0.80;;;;;;;-5.72;95.10;100920.22;4994931;28;20054;-85
2022/11/27 06:13:46;;;;;;;0.70;0.70;;;;;;;-5.67;95.47;100924.28;5015836;28;20140;-84
2022/11/27 06:16:22;;;;;;;0.80;0.80;;;;;;;-5.63;95.51;100918.84;5009271;28;20041;-84
2022/11/27 06:18:51;;;;;;;0.70;0.70;;;;;;;-5.56;95.53;100928.91;4996432;28;20056;-83
2022/11/27 06:21:22;;;;;;;0.57;0.57;;;;;;;-5.54;95.48;100929.66;4983999;28;20050;-88
2022/11/27 06:23:54;;;;;;;0.60;0.60;;;;;;;-5.46;95.80;100932.66;4987682;28;20081;-84
2022/11/27 06:26:24;;;;;;;0.73;0.73;;;;;;;-5.45;95.62;100923.81;4997293;28;20060;-83
2022/11/27 06:28:52;;;;;;;0.70;0.70;;;;;;;-5.47;95.77;100922.22;5016279;28;20084;-84
2022/11/27 06:31:21;;;;;;;0.65;0.65;;;;;;;-5.43;95.93;100925.50;5028701;28;20076;-85
2022/11/27 06:33:50;;;;;;;0.70;0.70;;;;;;;-5.41;95.92;100929.75;5011314;28;20045;-85
2022/11/27 06:36:18;;;;;;;0.70;0.70;;;;;;;-5.35;95.79;100933.78;5004454;28;20739;-82
2022/11/27 06:38:46;;;;;;;0.70;0.70;;;;;;;-5.36;95.85;100927.66;5027215;28;20109;-83
2022/11/27 06:41:16;;;;;;;0.80;0.80;;;;;;;-5.30;96.11;100935.16;5028706;28;20508;-84
2022/11/27 06:43:43;;;;;;;0.80;0.80;;;;;;;-5.32;95.87;100929.16;5028145;28;20060;-82
2022/11/27 06:46:14;;;;;;;0.65;0.65;;;;;;;-5.33;95.97;100924.84;5007627;28;20041;-81
2022/11/27 06:48:42;;;;;;;0.77;0.77;;;;;;;-5.32;95.91;100929.16;5017639;28;20111;-83
2022/11/27 06:51:12;;;;;;;0.80;0.80;;;;;;;-5.22;96.08;100929.44;5019757;28;20049;-83
2022/11/27 06:53:39;;;;;;;0.50;0.50;;;;;;;-5.19;96.21;100931.03;5014576;28;20041;-84
2022/11/27 06:56:09;;;;;;;0.50;0.50;;;;;;;-5.15;96.05;100935.16;5015015;28;20065;-82
2022/11/27 06:58:36;;;;;;;0.60;0.60;;;;;;;-5.13;96.52;100942.03;5014596;28;20075;-82
2022/11/27 07:01:07;;;;;;;0.70;0.70;;;;;;;-5.08;95.86;100941.75;5016546;28;20057;-81
2022/11/27 07:03:35;;;;;;;0.60;0.60;;;;;;;-5.07;96.32;100944.25;5018585;28;20088;-84
2022/11/27 07:06:03;;;;;;;0.60;0.60;;;;;;;-4.99;96.22;100946.41;5013589;28;20065;-83
2022/11/27 07:08:31;;;;;;;0.80;0.80;;;;;;;-4.97;96.35;100952.44;5014886;28;20512;-82
2022/11/27 07:11:03;;;;;;;0.60;0.60;;;;;;;-4.99;96.36;100948.19;5011768;28;20061;-83
2022/11/27 07:13:30;;;;;;;0.70;0.70;;;;;;;-4.91;96.45;100949.41;4988819;28;20060;-81
2022/11/27 07:16:02;;;;;;;0.65;0.65;;;;;;;-4.85;96.34;100950.81;5009183;28;20092;-82
2022/11/27 07:18:30;;;;;;;0.80;0.80;;;;;;;-4.86;96.21;100949.97;5021861;28;20096;-81
2022/11/27 07:20:57;;;;;;;0.60;0.60;;;;;;;-5.01;96.34;100943.03;5009010;28;20052;-82
2022/11/27 07:23:24;;;;;;;0.77;0.77;;;;;;;-4.94;96.41;100954.84;4988210;28;20390;-83
2022/11/27 07:26:14;;;;;;;0.65;0.65;;;;;;;-4.91;96.31;100954.69;5009021;28;20060;-81
2022/11/27 07:28:44;;;;;;;0.70;0.70;;;;;;;-4.93;96.45;100953.09;5019333;28;20053;-84
2022/11/27 07:31:16;;;;;;;0.90;0.90;;;;;;;-4.94;96.55;100949.59;5013437;28;20081;-82
2022/11/27 07:33:43;;;;;;;0.70;0.70;;;;;;;-4.91;96.40;100952.06;4998901;28;20049;-83
2022/11/27 07:36:23;;;;;;;0.60;0.60;;;;;;;-4.84;96.50;100949.84;5013386;28;20053;-84
2022/11/27 07:38:51;;;;;;;0.75;0.75;;;;;;;-4.74;96.57;100953.59;5012556;28;20108;-82
2022/11/27 07:41:18;;;;;;;0.70;0.70;;;;;;;-4.69;96.50;100948.03;5012876;28;20133;-81
2022/11/27 07:43:45;;;;;;;0.60;0.60;;;;;;;-4.75;96.12;100937.91;4990433;28;20060;-82
2022/11/27 07:46:15;;;;;;;0.85;0.85;;;;;;;-4.70;96.22;100931.38;5013807;28;20581;-83
2022/11/27 07:48:43;;;;;;;0.77;0.77;;;;;;;-4.60;96.11;100936.91;5018317;28;20045;-82
2022/11/27 07:51:12;;;;;;;0.75;0.75;;;;;;;-4.60;96.05;100944.81;5016822;28;20118;-83
2022/11/27 07:53:40;;;;;;;0.60;0.60;;;;;;;-4.61;96.05;100946.59;4994916;28;20721;-82
2022/11/27 07:56:10;;;;;;;0.65;0.65;;;;;;;-4.58;96.12;100941.13;5016689;28;20049;-83
2022/11/27 07:58:40;;;;;;;0.80;0.80;;;;;;;-4.49;95.91;100944.94;4999771;28;20112;-84
2022/11/27 08:01:09;;;;;;;0.60;0.60;;;;;;;-4.52;95.54;100945.16;5029430;28;20058;-82
2022/11/27 08:03:36;;;;;;;0.57;0.57;;;;;;;-4.49;95.63;100941.47;5019675;28;20104;-83
2022/11/27 08:06:04;;;;;;;0.70;0.70;;;;;;;-4.43;95.71;100947.19;5016943;28;20049;-82
2022/11/27 08:08:31;;;;;;;0.60;0.60;;;;;;;-4.37;95.71;100949.41;5013116;28;20415;-81
2022/11/27 08:10:59;;;;;;;0.60;0.60;;;;;;;-4.37;95.27;100951.22;5018605;28;20054;-82
2022/11/27 08:13:26;;;;;;;0.70;0.70;;;;;;;-4.34;95.43;100952.81;5018346;28;20141;-82
2022/11/27 08:15:53;;;;;;;0.60;0.60;;;;;;;-4.30;95.25;100949.88;5028737;28;20423;-82
2022/11/27 08:18:20;;;;;;;0.68;0.68;;;;;;;-4.36;95.00;100937.06;5033459;28;20152;-82
2022/11/27 08:20:49;;;;;;;0.60;0.60;;;;;;;-4.25;94.99;100941.66;5032619;28;20457;-83
2022/11/27 08:23:17;;;;;;;0.63;0.63;;;;;;;-4.29;94.92;100942.78;5033750;28;20132;-81
2022/11/27 08:25:44;;;;;;;0.80;0.80;;;;;;;-4.32;95.10;100930.66;5016102;28;20084;-81
2022/11/27 08:28:11;;;;;;;0.70;0.70;;;;;;;-4.26;94.88;100934.69;5018565;28;20050;-81
2022/11/27 08:30:39;;;;;;;0.73;0.73;;;;;;;-4.21;94.68;100941.31;5025465;28;20089;-81
2022/11/27 08:33:06;;;;;;;0.70;0.70;;;;;;;-4.16;94.97;100930.47;5010029;28;20042;-80
2022/11/27 08:35:32;;;;;;;0.80;0.80;;;;;;;-4.15;94.76;100933.03;5017556;28;20049;-84
2022/11/27 08:38:00;;;;;;;1.00;1.00;;;;;;;-4.16;94.47;100936.59;5021975;28;20120;-81
2022/11/27 08:40:27;;;;;;;0.70;0.70;;;;;;;-4.15;94.76;100940.09;5013026;28;20100;-82
2022/11/27 08:42:54;;;;;;;0.80;0.80;;;;;;;-4.12;94.46;100939.88;4997062;28;20489;-81
2022/11/27 08:45:21;;;;;;;0.77;0.77;;;;;;;-4.09;94.68;100942.31;5009001;28;20076;-82
2022/11/27 08:47:48;;;;;;;0.70;0.70;;;;;;;-4.07;94.85;100937.78;5022410;28;20050;-82
2022/11/27 08:50:15;;;;;;;0.70;0.70;;;;;;;-4.06;94.65;100946.53;5022112;28;20049;-81
2022/11/27 08:52:42;;;;;;;0.70;0.70;;;;;;;-4.05;94.66;100935.03;5021848;28;20073;-80
2022/11/27 08:55:09;;;;;;;0.80;0.80;;;;;;;-4.03;94.54;100939.25;5022867;28;20052;-80
2022/11/27 08:57:36;;;;;;;0.82;0.82;;;;;;;-3.98;94.63;100939.78;5015423;28;20505;-80
2022/11/27 09:00:07;;;;;;;0.75;0.75;;;;;;;-3.99;94.41;100938.09;4994344;28;20054;-81
2022/11/27 09:02:34;;;;;;;0.68;0.68;;;;;;;-3.94;94.46;100938.63;4994606;28;20456;-81
2022/11/27 09:05:04;;;;;;;0.57;0.57;;;;;;;-3.85;94.32;100945.06;5012020;28;20050;-81
2022/11/27 09:07:31;;;;;;;0.75;0.75;;;;;;;-3.88;94.38;100934.72;5011934;28;20064;-81
2022/11/27 09:09:58;;;;;;;0.70;0.70;;;;;;;-3.79;94.33;100935.91;5011645;28;20134;-81
2022/11/27 09:12:26;;;;;;;0.70;0.70;;;;;;;-3.73;94.04;100941.59;5011278;28;20057;-81
2022/11/27 09:14:53;;;;;;;0.63;0.63;;;;;;;-3.68;93.87;100946.56;5011745;28;20128;-81
2022/11/27 09:17:20;;;;;;;0.68;0.68;;;;;;;-3.64;93.77;100934.84;5012297;28;20046;-80
2022/11/27 09:19:47;;;;;;;0.60;0.60;;;;;;;-3.57;93.65;100937.91;5015184;28;20053;-80
2022/11/27 09:22:15;;;;;;;0.88;0.88;;;;;;;-3.54;93.50;100933.28;5016517;28;20038;-81
2022/11/27 09:24:42;;;;;;;1.00;1.00;;;;;;;-3.55;93.24;100928.91;5027448;28;20053;-81
2022/11/27 09:27:09;;;;;;;0.80;0.80;;;;;;;-3.48;93.18;100937.28;5031713;28;20140;-82
2022/11/27 09:29:37;;;;;;;0.75;0.75;;;;;;;-3.46;93.11;100929.25;4997867;28;20554;-81
2022/11/27 09:32:04;;;;;;;0.80;0.80;;;;;;;-3.52;93.06;100931.38;5031248;28;20049;-81
2022/11/27 09:34:31;;;;;;;0.82;0.82;;;;;;;-3.45;92.68;100931.78;5032213;28;20045;-81
2022/11/27 09:37:04;;;;;;;0.80;0.80;;;;;;;-3.45;92.53;100930.94;5031300;28;20045;-81
2022/11/27 09:39:32;;;;;;;0.70;0.70;;;;;;;-3.42;92.38;100925.44;5031528;28;20054;-81
2022/11/27 09:42:05;;;;;;;0.70;0.70;;;;;;;-3.34;92.68;100934.53;5030387;28;20045;-81
2022/11/27 09:44:51;;;;;;;0.80;0.80;;;;;;;-3.28;92.60;100931.44;5013558;28;20625;-82
2022/11/27 09:47:30;;;;;;;0.70;0.70;;;;;;;-3.27;92.48;100927.00;5013944;28;20073;-81
2022/11/27 09:50:03;;;;;;;0.90;0.90;;;;;;;-3.25;92.31;100927.72;4985025;28;20091;-81
2022/11/27 09:52:54;;;;;;;0.90;0.90;;;;;;;-3.28;92.30;100926.16;5008932;28;20065;-82
2022/11/27 09:55:40;;;;;;;0.93;0.93;;;;;;;-3.30;92.02;100919.28;5012028;28;20519;-82
2022/11/27 09:58:18;;;;;;;0.98;0.98;;;;;;;-3.23;92.13;100925.00;5011106;28;20724;-82
2022/11/27 10:00:46;;;;;;;0.90;0.90;;;;;;;-3.21;92.23;100918.66;5017009;28;20132;-83
2022/11/27 10:03:15;;;;;;;0.90;0.90;;;;;;;-3.15;92.18;100923.47;5012112;28;20061;-82
2022/11/27 10:06:22;;;;;;;0.95;0.95;;;;;;;-3.12;92.27;100923.25;4993487;28;20045;-82
2022/11/27 10:09:11;;;;;;;0.80;0.80;;;;;;;-3.03;92.30;100929.69;5015285;28;20627;-82
2022/11/27 10:12:00;;;;;;;0.75;0.75;;;;;;;-3.02;92.15;100933.19;5024546;28;20056;-81
2022/11/27 10:14:32;;;;;;;0.90;0.90;;;;;;;-3.03;92.04;100920.94;5014250;28;20153;-82
2022/11/27 10:17:31;;;;;;;0.80;0.80;;;;;;;-3.04;91.58;100938.56;5014460;28;20064;-81
2022/11/27 10:20:30;;;;;;;0.85;0.85;;;;;;;-3.02;91.81;100928.72;5009903;28;20057;-82
2022/11/27 10:23:16;;;;;;;0.80;0.80;;;;;;;-3.06;91.51;100924.66;4975255;28;20438;-83
2022/11/27 10:26:18;;;;;;;0.93;0.93;;;;;;;-3.00;91.70;100929.47;4974168;28;20074;-84
2022/11/27 10:28:59;;;;;;;0.98;0.98;;;;;;;-2.90;91.51;100922.56;4973949;28;20301;-84
2022/11/27 10:31:41;;;;;;;0.95;0.95;;;;;;;-2.85;90.87;100916.97;4942189;28;20599;-83
2022/11/27 10:34:33;;;;;;;0.90;0.90;;;;;;;-2.83;90.73;100918.53;4952902;28;20047;-83
2022/11/27 10:37:07;;;;;;;0.70;0.70;;;;;;;-2.85;90.73;100915.16;4953552;28;20134;-83
2022/11/27 10:39:41;;;;;;;1.00;1.00;;;;;;;-2.77;90.74;100916.41;4937102;28;20062;-82
2022/11/27 10:42:34;;;;;;;0.88;0.88;;;;;;;-2.75;90.39;100915.34;4954993;28;20066;-84
2022/11/27 10:45:05;;;;;;;0.90;0.90;;;;;;;-2.71;90.42;100924.75;4937749;28;20061;-83
2022/11/27 10:47:33;;;;;;;0.88;0.88;;;;;;;-2.69;90.27;100920.16;4960959;28;20054;-82
2022/11/27 10:50:00;;;;;;;0.80;0.80;;;;;;;-2.71;90.20;100926.50;4936304;29;20393;-82
2022/11/27 10:52:30;;;;;;;1.00;1.00;;;;;;;-2.69;90.09;100921.97;4934384;29;20071;-83
2022/11/27 10:55:08;;;;;;;1.00;1.00;;;;;;;-2.69;90.32;100921.97;4936794;29;20505;-86
2022/11/27 10:57:48;;;;;;;0.80;0.80;;;;;;;-2.74;90.23;100922.28;4960915;28;20158;-85
2022/11/27 11:00:23;;;;;;;0.77;0.77;;;;;;;-2.80;90.20;100928.03;5012951;28;20508;-84
2022/11/27 11:03:02;;;;;;;1.00;1.00;;;;;;;-2.84;89.85;100905.41;5032958;28;20441;-85
2022/11/27 11:05:30;;;;;;;0.80;0.80;;;;;;;-2.88;89.99;100919.84;5036777;28;20064;-88
2022/11/27 11:08:18;;;;;;;1.00;1.00;;;;;;;-2.91;90.15;100925.31;4989899;28;20061;-84
2022/11/27 11:10:52;;;;;;;0.85;0.85;;;;;;;-2.98;90.03;100916.16;5018515;28;20480;-85
2022/11/27 11:13:28;;;;;;;1.00;1.00;;;;;;;-3.06;90.06;100919.34;4997648;28;20049;-85
2022/11/27 11:15:56;;;;;;;0.80;0.80;;;;;;;-3.10;89.97;100916.06;5006641;28;20054;-83
2022/11/27 11:18:28;;;;;;;0.98;0.98;;;;;;;-3.14;90.32;100919.91;5011555;28;20111;-82
2022/11/27 11:20:57;;;;;;;0.80;0.80;;;;;;;-3.08;90.15;100922.09;4985146;28;20050;-85
2022/11/27 11:23:33;;;;;;;0.90;0.90;;;;;;;-3.12;90.13;100912.69;5001983;28;20073;-83
2022/11/27 11:26:08;;;;;;;0.90;0.90;;;;;;;-3.06;90.00;100924.66;5008088;28;20057;-84
2022/11/27 11:28:45;;;;;;;0.80;0.80;;;;;;;-3.12;89.88;100919.78;5010986;28;20076;-85
2022/11/27 11:31:17;;;;;;;0.90;0.90;;;;;;;-3.13;90.08;100932.16;5002726;28;20058;-83
2022/11/27 11:34:22;;;;;;;0.80;0.80;;;;;;;-3.16;90.05;100911.25;5006594;28;20077;-82
2022/11/27 11:36:57;;;;;;;0.90;0.90;;;;;;;-3.16;89.77;100924.44;4997611;28;20761;-83
2022/11/27 11:39:29;;;;;;;1.00;1.00;;;;;;;-3.22;90.02;100918.75;4994342;28;20050;-83
2022/11/27 11:41:57;;;;;;;0.85;0.85;;;;;;;-3.17;90.03;100920.09;4992754;28;20046;-83
2022/11/27 11:44:32;;;;;;;0.90;0.90;;;;;;;-3.19;90.17;100919.38;4995935;28;20046;-83
2022/11/27 11:46:59;;;;;;;;;;;;;;;-3.19;90.28;100922.03;5010594;28;20054;-86